Time;durP1;ratioP1;P1;durP2;ratioP2;P2;SDS_P1;SDS_P2;PMS_P1;PMS_P2;Temp;Humidity;BMP_temperature;BMP_pressure;BME280_temperature;BME280_humidity;BME280_pressure;Samples;Min_cycle;Max_cycle;Signal;HPM_P1;HPM_P2
2021/06/19 00:01:12;;;;;;;2.73;1.53;;;;;;;22.05;67.60;101134.88;5253738;28;20037;-67
2021/06/19 00:03:43;;;;;;;3.13;1.30;;;;;;;22.03;67.42;101132.38;5254999;28;20029;-67
2021/06/19 00:06:14;;;;;;;2.10;1.20;;;;;;;21.98;67.68;101142.00;5253608;28;20025;-67
2021/06/19 00:08:45;;;;;;;2.07;1.20;;;;;;;21.96;68.41;101133.38;5254038;28;20065;-67
2021/06/19 00:11:17;;;;;;;2.80;1.20;;;;;;;21.93;68.10;101139.91;5254333;28;20021;-66
2021/06/19 00:13:49;;;;;;;1.70;1.20;;;;;;;21.91;68.43;101139.31;5254224;28;20068;-66
2021/06/19 00:16:22;;;;;;;1.93;1.37;;;;;;;21.88;68.67;101147.69;5253361;28;20688;-68
2021/06/19 00:18:53;;;;;;;3.05;1.25;;;;;;;21.85;68.81;101145.41;5252811;28;20029;-66
2021/06/19 00:21:24;;;;;;;4.23;1.50;;;;;;;21.82;68.69;101140.47;5254604;28;20052;-69
2021/06/19 00:23:56;;;;;;;2.50;1.30;;;;;;;21.80;68.94;101145.19;5253907;28;20074;-66
2021/06/19 00:26:27;;;;;;;2.33;1.17;;;;;;;21.73;69.77;101147.00;5254850;28;20041;-66
2021/06/19 00:28:58;;;;;;;2.53;1.30;;;;;;;21.70;69.71;101148.19;5253488;28;20118;-66
2021/06/19 00:31:30;;;;;;;3.00;1.40;;;;;;;21.65;69.86;101141.81;5253383;28;20025;-66
2021/06/19 00:34:02;;;;;;;2.57;1.43;;;;;;;21.64;70.14;101148.19;5252566;28;20025;-66
2021/06/19 00:36:33;;;;;;;3.33;1.30;;;;;;;21.62;70.22;101151.84;5253489;28;20029;-67
2021/06/19 00:39:05;;;;;;;4.00;1.37;;;;;;;21.60;70.76;101153.06;5253998;28;20033;-66
2021/06/19 00:41:37;;;;;;;2.83;1.10;;;;;;;21.59;70.35;101146.91;5253044;28;20053;-67
2021/06/19 00:44:20;;;;;;;2.10;1.30;;;;;;;21.58;70.16;101149.75;5252001;28;20060;-67
2021/06/19 00:46:52;;;;;;;2.63;1.80;;;;;;;21.48;70.65;101147.47;5255068;28;20214;-66
2021/06/19 00:49:25;;;;;;;3.35;1.40;;;;;;;21.44;71.35;101156.03;5254393;28;20028;-67
2021/06/19 00:51:56;;;;;;;1.75;1.27;;;;;;;21.40;71.17;101152.09;5252792;28;20382;-66
2021/06/19 00:54:28;;;;;;;4.50;1.77;;;;;;;21.33;71.38;101149.41;5257013;28;20033;-66
2021/06/19 00:57:01;;;;;;;2.47;1.63;;;;;;;21.35;71.60;101147.34;5256449;28;20373;-66
2021/06/19 00:59:34;;;;;;;2.60;1.50;;;;;;;21.30;72.10;101157.75;5255398;28;20162;-67
2021/06/19 01:02:05;;;;;;;3.47;1.52;;;;;;;21.31;72.15;101159.38;5255377;28;20555;-67
2021/06/19 01:04:36;;;;;;;4.13;1.37;;;;;;;21.29;72.45;101166.72;5256250;28;20040;-68
2021/06/19 01:07:08;;;;;;;2.60;1.37;;;;;;;21.30;72.52;101171.06;5254424;28;20016;-66
2021/06/19 01:09:39;;;;;;;2.63;1.67;;;;;;;21.30;72.36;101168.41;5254934;28;20040;-67
2021/06/19 01:12:10;;;;;;;4.47;1.73;;;;;;;21.29;72.55;101170.25;5254493;28;20108;-67
2021/06/19 01:14:43;;;;;;;2.33;1.30;;;;;;;21.26;72.72;101169.81;5256414;28;20028;-67
2021/06/19 01:17:14;;;;;;;2.00;1.50;;;;;;;21.23;72.69;101164.84;5253478;28;20028;-67
2021/06/19 01:19:57;;;;;;;2.90;1.50;;;;;;;21.24;73.07;101166.50;5254789;28;20482;-67
2021/06/19 01:22:30;;;;;;;2.38;1.63;;;;;;;21.28;72.86;101160.59;5252663;28;20121;-67
2021/06/19 01:25:08;;;;;;;2.35;1.67;;;;;;;21.27;72.99;101166.94;5250889;28;20026;-67
2021/06/19 01:27:39;;;;;;;2.88;1.20;;;;;;;21.27;73.19;101166.13;5255451;28;20029;-67
2021/06/19 01:30:11;;;;;;;3.13;1.77;;;;;;;21.26;73.19;101159.97;5255291;28;20025;-67
2021/06/19 01:32:42;;;;;;;4.10;1.60;;;;;;;21.20;73.26;101159.91;5254032;28;20029;-66
2021/06/19 01:35:14;;;;;;;5.93;1.87;;;;;;;21.19;73.30;101155.59;5255583;28;20349;-66
2021/06/19 01:37:49;;;;;;;2.38;1.35;;;;;;;21.20;73.67;101159.91;5252892;28;20390;-66
2021/06/19 01:40:24;;;;;;;4.40;1.40;;;;;;;21.13;73.77;101154.50;5245912;28;20044;-66
2021/06/19 01:42:58;;;;;;;2.80;1.90;;;;;;;21.08;74.19;101157.75;5253014;28;20083;-67
2021/06/19 01:45:32;;;;;;;3.50;1.98;;;;;;;21.06;74.33;101154.47;5247253;28;20514;-67
2021/06/19 01:48:06;;;;;;;3.92;1.80;;;;;;;21.02;74.43;101155.84;5254254;28;20029;-67
2021/06/19 01:50:38;;;;;;;2.83;1.85;;;;;;;20.99;74.54;101150.94;5250355;28;20033;-67
2021/06/19 01:53:09;;;;;;;2.25;1.85;;;;;;;20.97;74.87;101150.28;5253533;28;20029;-67
2021/06/19 01:55:41;;;;;;;2.97;1.80;;;;;;;21.00;74.72;101157.91;5254939;28;20375;-67
2021/06/19 01:58:12;;;;;;;4.27;1.77;;;;;;;20.94;75.03;101165.81;5254339;28;20033;-66
2021/06/19 02:00:43;;;;;;;5.53;2.13;;;;;;;20.89;75.49;101158.41;5251828;28;20493;-67
2021/06/19 02:03:15;;;;;;;2.80;2.23;;;;;;;20.78;75.54;101146.41;5254958;28;20111;-67
2021/06/19 02:05:46;;;;;;;3.90;1.87;;;;;;;20.86;75.86;101158.78;5252450;28;20597;-67
2021/06/19 02:08:19;;;;;;;3.73;1.93;;;;;;;20.82;76.30;101153.00;5253340;28;20033;-67
2021/06/19 02:10:51;;;;;;;4.13;2.15;;;;;;;20.78;75.89;101153.59;5252329;28;20441;-67
2021/06/19 02:13:23;;;;;;;4.37;2.33;;;;;;;20.74;76.45;101158.47;5255116;28;20029;-66
2021/06/19 02:15:55;;;;;;;3.53;1.93;;;;;;;20.70;76.31;101154.53;5251294;28;20021;-67
2021/06/19 02:18:26;;;;;;;4.63;2.13;;;;;;;20.70;76.91;101157.19;5255263;28;20032;-67
2021/06/19 02:20:57;;;;;;;2.47;2.03;;;;;;;20.69;77.03;101160.06;5252266;28;20545;-66
2021/06/19 02:23:29;;;;;;;3.23;2.20;;;;;;;20.65;77.15;101157.75;5254365;28;20024;-66
2021/06/19 02:26:00;;;;;;;2.97;1.90;;;;;;;20.65;77.26;101163.09;5255003;28;20025;-66
2021/06/19 02:28:31;;;;;;;3.50;2.10;;;;;;;20.66;77.63;101155.91;5254862;28;20033;-67
2021/06/19 02:31:02;;;;;;;3.57;2.10;;;;;;;20.64;77.78;101163.25;5253308;28;20029;-66
2021/06/19 02:33:34;;;;;;;2.50;2.00;;;;;;;20.58;78.16;101164.03;5253832;28;20085;-66
2021/06/19 02:36:06;;;;;;;2.93;2.17;;;;;;;20.59;78.08;101169.16;5251907;28;20025;-66
2021/06/19 02:38:37;;;;;;;4.90;2.17;;;;;;;20.56;78.33;101168.69;5254588;28;20467;-67
2021/06/19 02:41:08;;;;;;;4.33;2.30;;;;;;;20.50;78.72;101175.63;5254031;28;20127;-67
2021/06/19 02:43:40;;;;;;;5.10;2.37;;;;;;;20.49;78.97;101173.09;5252529;28;20047;-68
2021/06/19 02:46:11;;;;;;;5.40;2.33;;;;;;;20.46;79.11;101179.63;5253420;28;20448;-65
2021/06/19 02:48:42;;;;;;;7.60;2.50;;;;;;;20.42;79.18;101171.19;5253804;28;20037;-65
2021/06/19 02:51:13;;;;;;;4.90;2.40;;;;;;;20.39;79.50;101170.75;5252065;28;20044;-66
2021/06/19 02:53:45;;;;;;;3.57;2.60;;;;;;;20.36;79.50;101171.09;5253627;28;20033;-66
2021/06/19 02:56:16;;;;;;;3.20;2.77;;;;;;;20.35;79.73;101172.13;5251797;28;20494;-67
2021/06/19 02:58:47;;;;;;;4.27;2.93;;;;;;;20.30;79.79;101172.66;5248308;28;20037;-66
2021/06/19 03:01:18;;;;;;;3.43;2.77;;;;;;;20.29;79.56;101183.50;5251841;28;20036;-66
2021/06/19 03:03:50;;;;;;;5.50;3.10;;;;;;;20.25;79.87;101182.22;5253439;28;20125;-66
2021/06/19 03:06:21;;;;;;;4.70;3.17;;;;;;;20.24;79.81;101191.22;5255139;28;20090;-66
2021/06/19 03:08:52;;;;;;;4.13;3.27;;;;;;;20.18;79.88;101190.94;5255253;28;20048;-66
2021/06/19 03:11:24;;;;;;;3.93;3.63;;;;;;;20.16;79.82;101192.97;5251495;28;20112;-66
2021/06/19 03:13:55;;;;;;;4.57;3.50;;;;;;;20.08;79.92;101182.44;5251129;28;20030;-66
2021/06/19 03:16:26;;;;;;;6.27;3.87;;;;;;;20.11;79.74;101190.03;5254628;28;20052;-68
2021/06/19 03:18:59;;;;;;;4.57;3.93;;;;;;;20.05;80.19;101188.13;5252373;28;20033;-65
2021/06/19 03:21:30;;;;;;;4.22;3.75;;;;;;;20.00;80.21;101193.16;5252255;28;20127;-68
2021/06/19 03:24:02;;;;;;;5.03;3.70;;;;;;;19.98;80.43;101192.50;5253643;28;20492;-67
2021/06/19 03:26:34;;;;;;;4.10;3.70;;;;;;;20.01;80.25;101197.47;5255204;28;20033;-65
2021/06/19 03:29:07;;;;;;;4.53;3.60;;;;;;;19.98;80.37;101205.00;5258410;28;20037;-65
2021/06/19 03:31:38;;;;;;;4.85;3.65;;;;;;;19.90;80.59;101195.25;5260023;28;20037;-66
2021/06/19 03:34:09;;;;;;;4.50;3.57;;;;;;;19.91;80.66;101208.38;5260454;28;20027;-66
2021/06/19 03:36:40;;;;;;;4.63;3.50;;;;;;;19.88;80.82;101194.59;5258966;28;20021;-66
2021/06/19 03:39:15;;;;;;;3.77;3.03;;;;;;;19.88;80.98;101199.94;5259866;28;20111;-65
2021/06/19 03:41:47;;;;;;;4.57;3.17;;;;;;;19.85;81.18;101210.91;5259161;28;20024;-66
2021/06/19 03:44:18;;;;;;;4.30;3.23;;;;;;;19.85;81.35;101210.91;5260116;28;20051;-69
2021/06/19 03:46:51;;;;;;;5.10;4.00;;;;;;;19.82;81.65;101212.13;5258789;28;20106;-65
2021/06/19 03:49:22;;;;;;;3.75;3.05;;;;;;;19.78;82.13;101210.84;5257648;28;20067;-66
2021/06/19 03:51:53;;;;;;;4.13;3.73;;;;;;;19.74;82.20;101209.56;5260367;28;20053;-66
2021/06/19 03:54:24;;;;;;;5.77;3.43;;;;;;;19.77;82.19;101217.16;5258917;28;20033;-66
2021/06/19 03:56:56;;;;;;;5.60;3.40;;;;;;;19.74;82.75;101217.53;5258133;28;20132;-66
2021/06/19 03:59:27;;;;;;;4.90;3.70;;;;;;;19.69;82.95;101212.75;5259398;28;20032;-66
2021/06/19 04:01:59;;;;;;;7.43;3.90;;;;;;;19.74;82.65;101222.84;5252132;28;20447;-65
2021/06/19 04:04:30;;;;;;;5.73;3.40;;;;;;;19.71;82.77;101231.19;5256880;28;20036;-66
2021/06/19 04:07:01;;;;;;;7.07;3.53;;;;;;;19.68;82.94;101235.00;5257101;28;20025;-66
2021/06/19 04:09:32;;;;;;;4.73;3.77;;;;;;;19.70;82.56;101234.84;5257994;28;20028;-66
2021/06/19 04:12:05;;;;;;;3.57;3.27;;;;;;;19.63;82.49;101241.91;5259808;28;20032;-66
2021/06/19 04:14:36;;;;;;;3.70;3.30;;;;;;;19.61;82.43;101247.34;5259071;28;20084;-66
2021/06/19 04:17:08;;;;;;;4.13;3.67;;;;;;;19.65;82.54;101248.66;5260515;28;20159;-65
2021/06/19 04:19:41;;;;;;;7.53;4.53;;;;;;;19.55;82.84;101245.41;5257996;28;20028;-66
2021/06/19 04:22:13;;;;;;;4.70;4.25;;;;;;;19.60;82.80;101258.97;5257050;28;20522;-66
2021/06/19 04:24:45;;;;;;;7.78;5.20;;;;;;;19.50;82.15;101253.09;5259819;28;20386;-65
2021/06/19 04:27:20;;;;;;;7.00;5.37;;;;;;;19.54;82.80;101272.97;5257655;28;20081;-65
2021/06/19 04:29:52;;;;;;;6.20;4.90;;;;;;;19.50;83.04;101263.72;5259939;28;20031;-65
2021/06/19 04:32:24;;;;;;;6.70;6.07;;;;;;;19.53;82.30;101279.31;5259725;28;20060;-66
2021/06/19 04:34:55;;;;;;;9.83;5.93;;;;;;;19.54;82.43;101269.50;5259914;28;20024;-65
2021/06/19 04:37:27;;;;;;;8.03;5.60;;;;;;;19.56;82.19;101278.13;5257554;28;20120;-66
2021/06/19 04:40:14;;;;;;;6.68;6.07;;;;;;;19.55;82.30;101277.31;5255965;28;20028;-66
2021/06/19 04:43:08;;;;;;;7.43;6.45;;;;;;;19.58;81.95;101284.91;5256956;28;20031;-66
2021/06/19 04:45:37;;;;;;;5.95;5.35;;;;;;;19.61;81.33;101303.16;5255904;28;20083;-66
2021/06/19 04:48:09;;;;;;;8.27;6.30;;;;;;;19.58;81.24;101295.53;5256413;28;20048;-66
2021/06/19 04:50:40;;;;;;;6.07;5.47;;;;;;;19.62;81.63;101299.53;5253235;28;20109;-66
2021/06/19 04:53:12;;;;;;;6.43;5.83;;;;;;;19.68;80.65;101304.13;5256549;28;20021;-67
2021/06/19 04:55:44;;;;;;;6.25;5.55;;;;;;;19.69;80.75;101299.63;5255094;28;20671;-66
2021/06/19 04:58:15;;;;;;;7.70;6.50;;;;;;;19.69;80.20;101304.94;5255008;28;20690;-66
2021/06/19 05:00:46;;;;;;;7.33;6.43;;;;;;;19.69;80.27;101308.44;5256535;28;20061;-66
2021/06/19 05:03:18;;;;;;;8.53;7.00;;;;;;;19.59;80.06;101305.19;5254631;28;20021;-66
2021/06/19 05:05:52;;;;;;;6.87;6.07;;;;;;;19.63;80.34;101314.47;5255306;28;20024;-66
2021/06/19 05:08:23;;;;;;;8.02;6.63;;;;;;;19.64;80.19;101310.00;5255630;28;20036;-66
2021/06/19 05:10:57;;;;;;;7.20;6.50;;;;;;;19.65;80.24;101316.94;5254553;28;20028;-66
2021/06/19 05:13:28;;;;;;;7.93;7.05;;;;;;;19.64;80.44;101320.63;5255904;28;20032;-65
2021/06/19 05:16:00;;;;;;;6.53;5.93;;;;;;;19.66;80.14;101323.91;5251809;28;20327;-66
2021/06/19 05:18:31;;;;;;;7.70;7.00;;;;;;;19.75;80.15;101322.03;5254083;28;20142;-66
2021/06/19 05:21:03;;;;;;;7.77;6.97;;;;;;;19.82;79.95;101322.97;5256695;28;20410;-67
2021/06/19 05:23:34;;;;;;;7.63;6.40;;;;;;;19.93;79.96;101339.34;5253991;28;20044;-66
2021/06/19 05:26:05;;;;;;;7.87;7.17;;;;;;;20.02;79.67;101340.06;5252812;28;20032;-67
2021/06/19 05:28:37;;;;;;;8.57;6.90;;;;;;;20.07;79.46;101343.00;5251966;28;20025;-67
2021/06/19 05:31:08;;;;;;;7.93;7.00;;;;;;;20.20;78.98;101339.75;5254017;28;20799;-67
2021/06/19 05:33:39;;;;;;;7.23;6.63;;;;;;;20.23;78.81;101346.53;5254760;28;20039;-67
2021/06/19 05:36:11;;;;;;;11.23;7.40;;;;;;;20.19;78.00;101340.75;5254230;28;20035;-68
2021/06/19 05:38:42;;;;;;;7.07;6.33;;;;;;;20.15;78.05;101347.44;5252075;28;20559;-68
2021/06/19 05:41:13;;;;;;;6.80;6.20;;;;;;;20.23;77.79;101355.34;5247959;28;20485;-67
2021/06/19 05:43:45;;;;;;;8.43;6.27;;;;;;;20.23;77.72;101349.19;5252109;28;20021;-67
2021/06/19 05:46:17;;;;;;;7.87;5.67;;;;;;;20.22;77.43;101345.69;5252189;28;20037;-67
2021/06/19 05:48:48;;;;;;;7.10;5.50;;;;;;;20.21;76.71;101343.25;5247867;28;20089;-68
2021/06/19 05:51:19;;;;;;;9.40;5.80;;;;;;;20.30;76.77;101347.47;5251475;28;20438;-68
2021/06/19 05:53:51;;;;;;;6.00;5.40;;;;;;;20.36;76.14;101347.56;5252102;28;20036;-67
2021/06/19 05:56:22;;;;;;;6.17;5.57;;;;;;;20.37;75.94;101337.75;5252472;28;20029;-67
2021/06/19 05:58:53;;;;;;;6.07;5.47;;;;;;;20.45;75.94;101342.97;5250073;28;20026;-67
2021/06/19 06:01:25;;;;;;;8.53;5.73;;;;;;;20.46;75.71;101349.97;5250279;28;20476;-67
2021/06/19 06:03:57;;;;;;;6.43;5.70;;;;;;;20.59;75.17;101344.03;5246152;28;20029;-68
2021/06/19 06:06:28;;;;;;;6.70;6.00;;;;;;;20.63;74.71;101346.13;5246863;28;20135;-67
2021/06/19 06:09:00;;;;;;;5.83;4.80;;;;;;;20.63;74.60;101354.13;5253072;28;20035;-66
2021/06/19 06:11:31;;;;;;;8.23;5.03;;;;;;;20.64;73.57;101360.25;5252010;28;20485;-67
2021/06/19 06:14:02;;;;;;;5.63;4.77;;;;;;;20.71;74.64;101368.34;5251461;28;20025;-67
2021/06/19 06:16:35;;;;;;;6.60;4.73;;;;;;;20.73;73.01;101369.84;5249127;28;20020;-67
2021/06/19 06:19:07;;;;;;;4.40;4.00;;;;;;;20.77;73.30;101378.28;5252642;28;20027;-67
2021/06/19 06:21:38;;;;;;;4.88;4.05;;;;;;;20.77;72.85;101381.75;5253030;28;20268;-67
2021/06/19 06:24:10;;;;;;;6.60;3.97;;;;;;;20.81;73.14;101383.03;5252793;28;20029;-67
2021/06/19 06:26:42;;;;;;;5.47;3.50;;;;;;;20.79;72.24;101377.06;5255402;28;20070;-66
2021/06/19 06:29:13;;;;;;;3.85;3.15;;;;;;;20.86;72.19;101385.16;5253246;28;20029;-66
2021/06/19 06:31:45;;;;;;;4.07;3.33;;;;;;;20.80;71.74;101388.56;5249447;28;20017;-66
2021/06/19 06:34:17;;;;;;;5.17;3.13;;;;;;;20.86;71.24;101387.81;5265015;28;20025;-66
2021/06/19 06:36:49;;;;;;;4.43;2.88;;;;;;;21.03;70.34;101383.13;5251776;28;20079;-66
2021/06/19 06:39:21;;;;;;;4.33;2.87;;;;;;;21.14;69.98;101380.81;5252675;28;20078;-67
2021/06/19 06:41:52;;;;;;;3.53;3.05;;;;;;;21.33;70.00;101387.44;5250446;28;20446;-66
2021/06/19 06:44:23;;;;;;;3.47;2.23;;;;;;;21.48;67.94;101386.53;5253528;28;20033;-67
2021/06/19 06:46:56;;;;;;;3.20;2.70;;;;;;;21.52;67.18;101388.66;5251605;28;20032;-66
2021/06/19 06:49:27;;;;;;;3.30;2.40;;;;;;;21.59;68.29;101381.56;5254095;28;20071;-67
2021/06/19 06:51:58;;;;;;;4.17;2.47;;;;;;;21.70;67.92;101390.88;5252375;28;20033;-67
2021/06/19 06:54:30;;;;;;;3.17;2.60;;;;;;;21.89;67.33;101388.59;5253307;28;20531;-68
2021/06/19 06:57:01;;;;;;;3.80;3.03;;;;;;;21.99;67.90;101387.25;5253993;28;20124;-66
2021/06/19 06:59:33;;;;;;;3.93;3.53;;;;;;;22.14;66.41;101387.22;5252789;28;20047;-66
2021/06/19 07:02:04;;;;;;;6.23;5.20;;;;;;;22.04;66.24;101390.16;5251175;28;20024;-67
2021/06/19 07:04:35;;;;;;;7.53;6.80;;;;;;;21.97;65.39;101380.44;5247011;28;20033;-67
2021/06/19 07:07:07;;;;;;;8.17;7.47;;;;;;;21.95;65.50;101386.00;5252379;28;20052;-67
2021/06/19 07:09:38;;;;;;;8.10;7.20;;;;;;;21.89;66.16;101386.75;5254006;28;20025;-67
2021/06/19 07:12:10;;;;;;;6.27;5.57;;;;;;;21.61;65.59;101382.19;5251681;28;20021;-67
2021/06/19 07:14:42;;;;;;;4.95;4.55;;;;;;;21.51;65.47;101383.50;5249290;28;20044;-66
2021/06/19 07:17:13;;;;;;;4.30;3.90;;;;;;;21.82;65.81;101386.69;5250205;28;20086;-67
2021/06/19 07:19:44;;;;;;;4.73;3.90;;;;;;;22.16;64.93;101387.84;5252341;28;20021;-66
2021/06/19 07:22:16;;;;;;;3.70;3.30;;;;;;;22.24;64.43;101392.22;5250003;28;20045;-67
2021/06/19 07:24:47;;;;;;;3.43;3.07;;;;;;;22.16;64.82;101400.34;5254264;28;20029;-66
2021/06/19 07:27:19;;;;;;;4.10;3.70;;;;;;;22.07;64.07;101407.63;5253250;28;20021;-67
2021/06/19 07:29:50;;;;;;;3.90;2.93;;;;;;;22.07;63.94;101404.97;5251017;28;20102;-67
2021/06/19 07:32:22;;;;;;;4.93;3.83;;;;;;;22.02;64.25;101394.88;5253775;28;20035;-67
2021/06/19 07:34:53;;;;;;;4.40;3.90;;;;;;;21.99;65.23;101400.59;5253745;28;20029;-68
2021/06/19 07:37:24;;;;;;;4.33;3.87;;;;;;;21.84;65.29;101408.66;5254597;28;20068;-67
2021/06/19 07:39:56;;;;;;;5.00;4.50;;;;;;;21.92;65.20;101407.72;5243778;28;20065;-67
2021/06/19 07:42:27;;;;;;;4.97;4.20;;;;;;;21.86;65.18;101409.31;5251779;28;20029;-67
2021/06/19 07:44:58;;;;;;;6.07;4.60;;;;;;;21.75;65.56;101417.00;5252738;28;20033;-67
2021/06/19 07:47:29;;;;;;;6.03;5.53;;;;;;;21.91;65.30;101421.25;5254004;28;20017;-68
2021/06/19 07:50:01;;;;;;;5.17;4.67;;;;;;;21.88;64.93;101418.97;5251843;28;20025;-67
2021/06/19 07:52:32;;;;;;;5.80;5.30;;;;;;;21.82;64.33;101413.38;5250698;28;20030;-67
2021/06/19 07:55:04;;;;;;;5.73;4.87;;;;;;;21.88;65.25;101425.13;5249298;28;20078;-67
2021/06/19 07:57:35;;;;;;;6.10;5.40;;;;;;;21.78;65.96;101435.25;5253801;28;20017;-68
2021/06/19 08:00:08;;;;;;;7.40;6.80;;;;;;;21.73;66.22;101437.69;5250208;28;20055;-67
2021/06/19 08:02:42;;;;;;;5.80;5.25;;;;;;;21.71;65.11;101435.22;5248555;28;20025;-67
2021/06/19 08:05:14;;;;;;;7.65;6.85;;;;;;;21.79;65.91;101434.28;5248110;28;20108;-67
2021/06/19 08:07:45;;;;;;;6.90;6.30;;;;;;;21.82;65.77;101429.38;5245923;28;20622;-67
2021/06/19 08:10:16;;;;;;;6.90;5.90;;;;;;;21.73;66.04;101429.69;5249246;28;20498;-67
2021/06/19 08:12:50;;;;;;;9.60;8.70;;;;;;;21.83;66.06;101427.53;5250491;28;20021;-67
2021/06/19 08:15:22;;;;;;;9.85;8.95;;;;;;;21.80;65.78;101433.25;5255154;28;20155;-67
2021/06/19 08:17:53;;;;;;;10.50;9.47;;;;;;;21.81;65.81;101433.03;5256997;28;20020;-67
2021/06/19 08:20:24;;;;;;;9.93;9.03;;;;;;;21.86;66.87;101433.31;5255556;28;20052;-67
2021/06/19 08:22:55;;;;;;;11.97;10.97;;;;;;;21.77;66.66;101439.78;5252737;28;20047;-67
2021/06/19 08:25:27;;;;;;;13.50;12.43;;;;;;;21.67;66.96;101444.63;5253832;28;20055;-67
2021/06/19 08:27:59;;;;;;;12.18;11.27;;;;;;;21.85;66.14;101444.16;5253071;28;20514;-67
2021/06/19 08:30:30;;;;;;;13.03;12.03;;;;;;;21.76;67.47;101445.31;5243666;28;20025;-68
2021/06/19 08:33:02;;;;;;;13.57;12.47;;;;;;;21.56;67.15;101450.44;5246273;28;20105;-67
2021/06/19 08:35:33;;;;;;;13.43;12.33;;;;;;;21.50;66.73;101449.31;5250700;28;20033;-67
2021/06/19 08:38:05;;;;;;;11.60;10.60;;;;;;;21.45;66.64;101461.56;5253120;28;20025;-67
2021/06/19 08:40:38;;;;;;;10.37;9.47;;;;;;;21.41;67.34;101466.47;5250533;28;20043;-67
2021/06/19 08:43:10;;;;;;;10.23;9.32;;;;;;;21.36;66.75;101460.84;5253308;28;20064;-67
2021/06/19 08:45:42;;;;;;;9.57;8.63;;;;;;;21.12;68.43;101446.78;5235570;28;20136;-67
2021/06/19 08:48:17;;;;;;;9.10;8.30;;;;;;;20.95;68.63;101457.78;5226712;28;20477;-67
2021/06/19 08:50:48;;;;;;;7.78;7.18;;;;;;;20.96;68.38;101457.63;5252225;28;20429;-66
2021/06/19 08:53:20;;;;;;;6.20;5.33;;;;;;;20.95;67.79;101458.66;5251480;28;20028;-67
2021/06/19 08:55:51;;;;;;;4.80;4.40;;;;;;;21.04;67.65;101451.38;5249974;28;20021;-66
2021/06/19 08:58:22;;;;;;;4.50;4.10;;;;;;;20.90;67.88;101456.50;5254066;28;20055;-67
2021/06/19 09:00:54;;;;;;;5.93;4.93;;;;;;;21.01;67.72;101449.91;5250403;28;20033;-67
2021/06/19 09:03:27;;;;;;;4.83;4.03;;;;;;;21.18;68.04;101447.06;5251442;28;20033;-67
2021/06/19 09:06:22;;;;;;;6.35;3.83;;;;;;;21.50;67.21;101448.50;5253998;28;20017;-66
2021/06/19 09:09:00;;;;;;;4.90;3.67;;;;;;;21.61;66.25;101451.50;5246955;28;20421;-66
2021/06/19 09:11:40;;;;;;;4.93;4.43;;;;;;;21.61;66.26;101454.19;5249131;28;20461;-67
2021/06/19 09:14:16;;;;;;;4.95;3.80;;;;;;;21.76;66.12;101446.13;5252394;28;20025;-67
2021/06/19 09:17:05;;;;;;;5.05;4.55;;;;;;;21.83;65.04;101444.38;5253574;28;20024;-66
2021/06/19 09:19:40;;;;;;;5.82;4.38;;;;;;;21.75;63.69;101443.66;5252258;28;20039;-66
2021/06/19 09:22:20;;;;;;;5.00;4.50;;;;;;;21.72;64.07;101444.03;5248306;28;20037;-66
2021/06/19 09:24:56;;;;;;;6.00;5.30;;;;;;;21.66;64.78;101436.78;5252996;28;20687;-66
2021/06/19 09:27:30;;;;;;;8.07;4.90;;;;;;;21.78;64.62;101443.25;5253621;28;20025;-66
2021/06/19 09:30:05;;;;;;;5.13;4.22;;;;;;;21.76;64.66;101438.13;5252305;28;20045;-66
2021/06/19 09:32:48;;;;;;;5.20;4.70;;;;;;;21.92;64.89;101442.38;5253140;28;20021;-66
2021/06/19 09:35:24;;;;;;;;;;;;;;;22.18;63.52;101444.50;5253882;28;20098;-66
2021/06/19 09:38:18;;;;;;;6.75;5.32;;;;;;;21.88;63.47;101440.31;5250094;28;19927;-67
2021/06/19 09:40:50;;;;;;;6.10;5.50;;;;;;;22.04;63.41;101440.84;5251453;28;20037;-66
2021/06/19 09:43:25;;;;;;;7.53;5.47;;;;;;;22.11;63.11;101444.41;5253463;28;20035;-66
2021/06/19 09:45:57;;;;;;;6.00;5.40;;;;;;;22.06;63.71;101436.16;5244324;28;20310;-66
2021/06/19 09:48:35;;;;;;;6.83;5.50;;;;;;;22.24;62.89;101434.94;5252402;28;20559;-67
2021/06/19 09:51:19;;;;;;;7.47;5.72;;;;;;;22.30;63.61;101431.47;5251551;28;20102;-66
2021/06/19 09:54:01;;;;;;;6.00;5.40;;;;;;;22.26;62.47;101435.53;5248219;28;20341;-66
2021/06/19 09:56:53;;;;;;;6.97;5.68;;;;;;;22.51;62.61;101425.28;5248090;28;20025;-67
2021/06/19 09:59:24;;;;;;;7.25;5.10;;;;;;;22.48;62.25;101423.00;5247471;28;20378;-67
2021/06/19 10:01:58;;;;;;;5.70;5.10;;;;;;;22.77;61.84;101427.31;5245778;28;20028;-67
2021/06/19 10:04:31;;;;;;;5.53;5.03;;;;;;;22.83;60.98;101429.16;5241015;28;20075;-67
2021/06/19 10:07:03;;;;;;;6.38;5.03;;;;;;;22.93;60.87;101428.84;5233993;28;20036;-67
2021/06/19 10:09:35;;;;;;;5.40;4.90;;;;;;;23.20;59.76;101429.81;5241883;28;20037;-67
2021/06/19 10:12:08;;;;;;;5.00;4.20;;;;;;;23.33;59.41;101426.34;5246582;28;20119;-67
2021/06/19 10:14:41;;;;;;;5.20;4.70;;;;;;;23.21;60.67;101424.25;5247031;28;20323;-67
2021/06/19 10:17:16;;;;;;;7.28;5.65;;;;;;;23.20;59.75;101424.47;5242670;28;20068;-67
2021/06/19 10:19:48;;;;;;;7.25;5.20;;;;;;;23.52;59.48;101420.25;5244715;28;20029;-67
2021/06/19 10:22:30;;;;;;;6.20;4.93;;;;;;;23.53;59.27;101420.06;5248732;28;20044;-66
2021/06/19 10:25:06;;;;;;;6.68;6.07;;;;;;;23.51;58.89;101421.28;5249124;28;20025;-67
2021/06/19 10:27:43;;;;;;;7.60;5.82;;;;;;;23.40;58.86;101425.34;5248776;28;20513;-66
2021/06/19 10:30:16;;;;;;;6.97;6.00;;;;;;;23.43;58.53;101419.59;5249659;28;20028;-66
2021/06/19 10:32:50;;;;;;;6.78;6.05;;;;;;;23.47;58.28;101420.03;5249431;28;20036;-67
2021/06/19 10:35:23;;;;;;;7.05;6.18;;;;;;;23.12;58.91;101422.78;5245811;28;20029;-67
2021/06/19 10:37:54;;;;;;;6.55;5.88;;;;;;;23.35;58.88;101414.44;5250409;28;20031;-66
2021/06/19 10:40:28;;;;;;;6.60;6.00;;;;;;;23.52;59.39;101409.53;5249470;28;20037;-67
2021/06/19 10:43:29;;;;;;;7.95;7.20;;;;;;;23.52;58.59;101410.41;5253371;28;20024;-67
2021/06/19 10:46:31;;;;;;;7.28;6.57;;;;;;;23.59;59.22;101407.72;5237327;28;20037;-66
2021/06/19 10:49:22;;;;;;;8.43;7.55;;;;;;;23.82;58.56;101399.34;5253769;28;20470;-66
2021/06/19 10:52:24;;;;;;;7.53;6.63;;;;;;;23.97;58.01;101404.50;5247142;28;20159;-67
2021/06/19 10:55:07;;;;;;;7.63;6.93;;;;;;;23.85;58.56;101393.59;5250791;28;20020;-66
2021/06/19 10:57:44;;;;;;;8.25;7.53;;;;;;;23.90;58.62;101388.44;5249202;28;20032;-67
2021/06/19 11:00:35;;;;;;;7.40;6.70;;;;;;;23.77;58.29;101391.94;5250195;28;20058;-67
2021/06/19 11:03:07;;;;;;;9.25;8.30;;;;;;;23.85;57.92;101372.19;5247771;28;20655;-67
2021/06/19 11:05:44;;;;;;;10.20;8.77;;;;;;;23.94;57.14;101372.78;5248283;28;20120;-66
2021/06/19 11:08:17;;;;;;;9.18;8.23;;;;;;;23.91;57.68;101381.25;5249222;28;20098;-67
2021/06/19 11:10:53;;;;;;;9.55;8.00;;;;;;;24.35;57.78;101367.22;5249714;28;20032;-67
2021/06/19 11:13:27;;;;;;;8.80;8.02;;;;;;;24.35;57.85;101366.41;5239305;28;20033;-67
2021/06/19 11:16:02;;;;;;;9.45;8.63;;;;;;;24.41;56.21;101369.09;5247380;28;20378;-67
2021/06/19 11:18:50;;;;;;;8.40;7.65;;;;;;;24.59;57.11;101359.59;5249378;28;20078;-66
2021/06/19 11:21:30;;;;;;;9.18;8.27;;;;;;;24.38;56.06;101363.31;5248624;28;20053;-67
2021/06/19 11:24:02;;;;;;;8.88;8.07;;;;;;;24.19;57.03;101354.25;5251823;28;20530;-67
2021/06/19 11:26:57;;;;;;;9.80;8.70;;;;;;;24.64;56.88;101343.69;5248490;28;20045;-67
2021/06/19 11:29:34;;;;;;;11.20;10.10;;;;;;;24.60;55.73;101347.84;5249819;28;20331;-67
2021/06/19 11:32:28;;;;;;;9.23;8.38;;;;;;;24.52;56.34;101351.56;5249241;28;20083;-67
2021/06/19 11:35:01;;;;;;;10.93;9.90;;;;;;;24.27;56.92;101351.38;5238273;28;20024;-67
2021/06/19 11:37:51;;;;;;;9.52;8.73;;;;;;;24.28;57.62;101353.00;5257944;28;20037;-67
2021/06/19 11:40:41;;;;;;;8.35;7.55;;;;;;;24.45;56.93;101361.47;5249696;28;20033;-67
2021/06/19 11:43:13;;;;;;;8.35;7.55;;;;;;;24.34;56.47;101351.38;5248493;28;20128;-67
2021/06/19 11:45:44;;;;;;;12.17;10.60;;;;;;;24.31;57.19;101359.81;5247673;28;20041;-67
2021/06/19 11:48:15;;;;;;;9.93;9.03;;;;;;;24.42;57.71;101360.03;5249735;28;20028;-67
2021/06/19 11:50:47;;;;;;;9.10;8.30;;;;;;;24.27;57.84;101354.88;5250870;28;20025;-67
2021/06/19 11:53:31;;;;;;;10.57;9.53;;;;;;;24.31;57.60;101365.16;5248177;28;20036;-67